Shohomaru — JD2043 — position and weather

sailwx.info

Track history (hours):
 
Tides and Currents Weather Stations Pressure Air Temp Water Temp Dewpoint Dewpoint Depression Visibility Wind Speed Wind Dir Waves Ship Positions

Shohomaru

Last reported at 2017-Oct-18 22:30 UTC. Time now 2017-Oct-18 22:36 UTC.
Position N 34°33' E 135°26'.

Length 68 m; draft 4.3 m.

Type: Tanker. MMSI: 431401999.

Date/timePositionNaut miles runAvg speedWind from/ knotsBaromVisibWave heightAir tempDewpointWater temp
2017-Oct-18 22:30N 34°33' E 135°26'1 1.1
2017-Oct-18 22:00N 34°33' E 135°25'4 7.1
2017-Oct-18 21:30N 34°32' E 135°21'1 1.6
2017-Oct-18 20:57N 34°32' E 135°20'0 0.0
2017-Oct-18 20:27N 34°32' E 135°20'0 0.0
2017-Oct-18 19:57N 34°32' E 135°20'0 0.0
2017-Oct-18 19:27N 34°32' E 135°20'0 0.0
2017-Oct-18 18:57N 34°32' E 135°20'0 0.0
2017-Oct-18 18:27N 34°32' E 135°20'0 0.0
2017-Oct-18 17:57N 34°32' E 135°20'0 0.0
2017-Oct-18 17:27N 34°32' E 135°20'0 0.0
2017-Oct-18 16:15N 34°32' E 135°20'0 0.0
2017-Oct-18 15:51N 34°32' E 135°20'0 0.0
2017-Oct-18 15:26N 34°32' E 135°20'0 0.0
2017-Oct-18 14:56N 34°32' E 135°20'0 0.0
2017-Oct-18 13:50N 34°32' E 135°20'0 0.0
2017-Oct-18 13:20N 34°32' E 135°20'0 0.0
2017-Oct-18 12:56N 34°32' E 135°20'0 0.0
2017-Oct-18 12:26N 34°32' E 135°20'0 0.0
2017-Oct-18 11:50N 34°32' E 135°20'0 0.0
2017-Oct-18 11:20N 34°32' E 135°20'0 0.0
2017-Oct-18 10:56N 34°32' E 135°20'0 0.0
2017-Oct-18 10:26N 34°32' E 135°20'0 0.0
2017-Oct-18 09:56N 34°32' E 135°20'0 0.0
2017-Oct-18 09:26N 34°32' E 135°20'0 0.0
2017-Oct-18 08:56N 34°32' E 135°20'0 0.0
2017-Oct-18 08:26N 34°32' E 135°20'0 0.0
2017-Oct-18 07:56N 34°32' E 135°20'1 1.2
2017-Oct-18 07:27N 34°32' E 135°20'510.8
2017-Oct-18 07:00N 34°29' E 135°14'611.7
2017-Oct-18 06:30N 34°26' E 135°09'811.7
2017-Oct-18 05:49N 34°20' E 135°02'510.4
2017-Oct-18 05:17N 34°15' E 134°59'311.0
2017-Oct-18 04:59N 34°12' E 134°60'612.1
2017-Oct-18 04:29N 34°05' E 135°00'22910.5
2017-Oct-17 06:34N 34°59' E 139°31'410.5
2017-Oct-17 06:11N 35°02' E 139°34'211.0
2017-Oct-17 06:00N 35°03' E 139°36'612.4
2017-Oct-17 05:30N 35°07' E 139°42'612.5
2017-Oct-17 05:00N 35°12' E 139°46'611.7
2017-Oct-17 04:30N 35°18' E 139°44'611.8
2017-Oct-17 04:00N 35°24' E 139°43'612.4
2017-Oct-17 03:30N 35°28' E 139°48'612.3
2017-Oct-17 03:00N 35°31' E 139°55'3 0.2
2017-Oct-16 09:40N 35°29' E 139°52'211.6
2017-Oct-16 09:30N 35°27' E 139°50'611.5
2017-Oct-16 09:00N 35°24' E 139°44'3 6.7
2017-Oct-16 08:30N 35°24' E 139°40'0 0.1
2017-Oct-16 08:00N 35°24' E 139°40'0 0.0
2017-Oct-16 07:31N 35°24' E 139°40'0 0.0
2017-Oct-16 07:00N 35°24' E 139°40'0 0.0
2017-Oct-16 06:30N 35°24' E 139°40'0 0.0
2017-Oct-16 06:00N 35°24' E 139°40'0 0.1
2017-Oct-16 05:30N 35°24' E 139°40'2 4.5
2017-Oct-16 05:01N 35°22' E 139°40'0 0.1
2017-Oct-16 04:29N 35°22' E 139°40'0 0.0
2017-Oct-16 03:59N 35°22' E 139°40'0 0.0
2017-Oct-16 03:29N 35°22' E 139°40'0 0.0
2017-Oct-16 02:59N 35°22' E 139°40'0 0.0
2017-Oct-16 02:26N 35°22' E 139°40'0 0.0
2017-Oct-16 01:59N 35°22' E 139°40'0 0.0
2017-Oct-16 01:26N 35°22' E 139°40'0 0.1
2017-Oct-16 00:59N 35°22' E 139°40'0 0.0
2017-Oct-16 00:29N 35°22' E 139°40'0 0.0
2017-Oct-15 23:59N 35°22' E 139°40'0 0.0
2017-Oct-15 23:29N 35°22' E 139°40'0 0.0
2017-Oct-15 22:59N 35°22' E 139°40'0 0.0
2017-Oct-15 22:29N 35°22' E 139°40'0 0.0
2017-Oct-15 21:59N 35°22' E 139°40'0 0.0
2017-Oct-15 21:29N 35°22' E 139°40'0 0.0
2017-Oct-15 20:59N 35°22' E 139°40'0 0.0
2017-Oct-15 20:29N 35°22' E 139°40'0 0.0
2017-Oct-15 19:59N 35°22' E 139°40'0 0.0
2017-Oct-15 19:29N 35°22' E 139°40'0 0.0
2017-Oct-15 18:59N 35°22' E 139°40'3 7.2
2017-Oct-15 18:31N 35°20' E 139°43'611.4
2017-Oct-15 18:00N 35°15' E 139°47'611.3
2017-Oct-15 17:30N 35°09' E 139°45'611.6
2017-Oct-15 17:00N 35°04' E 139°42'612.3
2017-Oct-15 16:30N 35°00' E 139°36'712.8
2017-Oct-15 15:59N 34°57' E 139°29'  
2017-Oct-12 07:35N 34°08' E 134°53'1 8.9
2017-Oct-12 07:30N 34°08' E 134°54'5 9.3
2017-Oct-12 07:00N 34°09' E 134°60'4 8.6
2017-Oct-12 06:30N 34°09' E 135°05'4 8.8
2017-Oct-12 06:00N 34°09' E 135°10'2 3.3
2017-Oct-12 05:30N 34°09' E 135°12'0 0.0
2017-Oct-12 05:00N 34°09' E 135°12'0 0.0
2017-Oct-12 04:30N 34°09' E 135°12'0 0.0
2017-Oct-12 04:00N 34°09' E 135°12'0 0.0
2017-Oct-12 03:20N 34°09' E 135°12'1 2.0
2017-Oct-12 03:00N 34°09' E 135°11'1 2.4
2017-Oct-12 02:31N 34°09' E 135°10'0 0.1
2017-Oct-12 02:01N 34°09' E 135°10'0 0.1
2017-Oct-12 01:31N 34°09' E 135°10'0 0.1
2017-Oct-12 01:01N 34°09' E 135°10'0 0.1
2017-Oct-12 00:24N 34°09' E 135°10'0 0.0
2017-Oct-12 00:00N 34°09' E 135°10'0 0.0
2017-Oct-11 23:30N 34°09' E 135°10'4 7.1
2017-Oct-11 23:00N 34°12' E 135°07'2 3.1
2017-Oct-11 22:30N 34°13' E 135°09'0 0.0
2017-Oct-11 22:00N 34°13' E 135°09'0 0.0
2017-Oct-11 21:30N 34°13' E 135°09'0 0.0
2017-Oct-11 21:00N 34°13' E 135°09'0 0.0
2017-Oct-11 20:30N 34°13' E 135°09'0 0.0
2017-Oct-11 20:00N 34°13' E 135°09'0 0.0
2017-Oct-11 19:30N 34°13' E 135°09'0 0.0
2017-Oct-11 19:00N 34°13' E 135°09'0 0.0
2017-Oct-11 18:30N 34°13' E 135°09'0 0.0
2017-Oct-11 18:01N 34°13' E 135°09'0 0.0
2017-Oct-11 17:30N 34°13' E 135°09'0 0.0
2017-Oct-11 17:00N 34°13' E 135°09'0 0.0
2017-Oct-11 00:00N 34°13' E 135°09'0 0.0
2017-Oct-10 23:30N 34°13' E 135°09'0 0.0
2017-Oct-10 23:00N 34°13' E 135°09'1 2.2
2017-Oct-10 22:30N 34°12' E 135°07'0 0.3
2017-Oct-10 21:59N 34°12' E 135°07'0 0.0
2017-Oct-10 21:29N 34°12' E 135°07'0 0.0
2017-Oct-10 20:59N 34°12' E 135°07'0 0.1
2017-Oct-10 20:29N 34°12' E 135°07'0 0.0
2017-Oct-10 19:59N 34°12' E 135°07'0 0.1
2017-Oct-10 19:26N 34°12' E 135°07'0 0.1
2017-Oct-10 18:59N 34°12' E 135°07'0 0.0
2017-Oct-10 18:29N 34°12' E 135°07'0 0.1
2017-Oct-10 17:56N 34°12' E 135°07'0 0.0
2017-Oct-10 17:29N 34°12' E 135°07'0 0.1
2017-Oct-10 16:59N 34°12' E 135°07'0 0.1
2017-Oct-10 16:29N 34°12' E 135°07'0 0.1
2017-Oct-10 15:59N 34°12' E 135°07'0 0.1
2017-Oct-10 15:29N 34°12' E 135°07'0 0.0
2017-Oct-10 14:59N 34°12' E 135°07'0 0.0
2017-Oct-10 13:59N 34°12' E 135°07'0 0.0
2017-Oct-10 13:29N 34°12' E 135°07'0 0.0
2017-Oct-10 12:59N 34°12' E 135°07'1 2.3
2017-Oct-10 12:30N 34°12' E 135°06'612.8
2017-Oct-10 12:00N 34°11' E 134°58'  
Track history (hours):
 
Tides and Currents Weather Stations Pressure Air Temp Water Temp Dewpoint Dewpoint Depression Visibility Wind Speed Wind Dir Waves Ship Positions

Shohomaru

Last reported at 2017-Oct-18 22:30 UTC. Time now 2017-Oct-18 22:36 UTC.
Position N 34°33' E 135°26'.

Length 68 m; draft 4.3 m.

Type: Tanker. MMSI: 431401999.

Date/timePositionNaut miles runAvg speedWind from/ knotsBaromVisibWave heightAir tempDewpointWater temp
2017-Oct-18 22:30N 34°33' E 135°26'1 1.1
2017-Oct-18 22:00N 34°33' E 135°25'4 7.1
2017-Oct-18 21:30N 34°32' E 135°21'1 1.6
2017-Oct-18 20:57N 34°32' E 135°20'0 0.0
2017-Oct-18 20:27N 34°32' E 135°20'0 0.0
2017-Oct-18 19:57N 34°32' E 135°20'0 0.0
2017-Oct-18 19:27N 34°32' E 135°20'0 0.0
2017-Oct-18 18:57N 34°32' E 135°20'0 0.0
2017-Oct-18 18:27N 34°32' E 135°20'0 0.0
2017-Oct-18 17:57N 34°32' E 135°20'0 0.0
2017-Oct-18 17:27N 34°32' E 135°20'0 0.0
2017-Oct-18 16:15N 34°32' E 135°20'0 0.0
2017-Oct-18 15:51N 34°32' E 135°20'0 0.0
2017-Oct-18 15:26N 34°32' E 135°20'0 0.0
2017-Oct-18 14:56N 34°32' E 135°20'0 0.0
2017-Oct-18 13:50N 34°32' E 135°20'0 0.0
2017-Oct-18 13:20N 34°32' E 135°20'0 0.0
2017-Oct-18 12:56N 34°32' E 135°20'0 0.0
2017-Oct-18 12:26N 34°32' E 135°20'0 0.0
2017-Oct-18 11:50N 34°32' E 135°20'0 0.0
2017-Oct-18 11:20N 34°32' E 135°20'0 0.0
2017-Oct-18 10:56N 34°32' E 135°20'0 0.0
2017-Oct-18 10:26N 34°32' E 135°20'0 0.0
2017-Oct-18 09:56N 34°32' E 135°20'0 0.0
2017-Oct-18 09:26N 34°32' E 135°20'0 0.0
2017-Oct-18 08:56N 34°32' E 135°20'0 0.0
2017-Oct-18 08:26N 34°32' E 135°20'0 0.0
2017-Oct-18 07:56N 34°32' E 135°20'1 1.2
2017-Oct-18 07:27N 34°32' E 135°20'510.8
2017-Oct-18 07:00N 34°29' E 135°14'611.7
2017-Oct-18 06:30N 34°26' E 135°09'811.7
2017-Oct-18 05:49N 34°20' E 135°02'510.4
2017-Oct-18 05:17N 34°15' E 134°59'311.0
2017-Oct-18 04:59N 34°12' E 134°60'612.1
2017-Oct-18 04:29N 34°05' E 135°00'22910.5
2017-Oct-17 06:34N 34°59' E 139°31'410.5
2017-Oct-17 06:11N 35°02' E 139°34'211.0
2017-Oct-17 06:00N 35°03' E 139°36'612.4
2017-Oct-17 05:30N 35°07' E 139°42'612.5
2017-Oct-17 05:00N 35°12' E 139°46'611.7
2017-Oct-17 04:30N 35°18' E 139°44'611.8
2017-Oct-17 04:00N 35°24' E 139°43'612.4
2017-Oct-17 03:30N 35°28' E 139°48'612.3
2017-Oct-17 03:00N 35°31' E 139°55'3 0.2
2017-Oct-16 09:40N 35°29' E 139°52'211.6
2017-Oct-16 09:30N 35°27' E 139°50'611.5
2017-Oct-16 09:00N 35°24' E 139°44'3 6.7
2017-Oct-16 08:30N 35°24' E 139°40'0 0.1
2017-Oct-16 08:00N 35°24' E 139°40'0 0.0
2017-Oct-16 07:31N 35°24' E 139°40'0 0.0
2017-Oct-16 07:00N 35°24' E 139°40'0 0.0
2017-Oct-16 06:30N 35°24' E 139°40'0 0.0
2017-Oct-16 06:00N 35°24' E 139°40'0 0.1
2017-Oct-16 05:30N 35°24' E 139°40'2 4.5
2017-Oct-16 05:01N 35°22' E 139°40'0 0.1
2017-Oct-16 04:29N 35°22' E 139°40'0 0.0
2017-Oct-16 03:59N 35°22' E 139°40'0 0.0
2017-Oct-16 03:29N 35°22' E 139°40'0 0.0
2017-Oct-16 02:59N 35°22' E 139°40'0 0.0
2017-Oct-16 02:26N 35°22' E 139°40'0 0.0
2017-Oct-16 01:59N 35°22' E 139°40'0 0.0
2017-Oct-16 01:26N 35°22' E 139°40'0 0.1
2017-Oct-16 00:59N 35°22' E 139°40'0 0.0
2017-Oct-16 00:29N 35°22' E 139°40'0 0.0
2017-Oct-15 23:59N 35°22' E 139°40'0 0.0
2017-Oct-15 23:29N 35°22' E 139°40'0 0.0
2017-Oct-15 22:59N 35°22' E 139°40'0 0.0
2017-Oct-15 22:29N 35°22' E 139°40'0 0.0
2017-Oct-15 21:59N 35°22' E 139°40'0 0.0
2017-Oct-15 21:29N 35°22' E 139°40'0 0.0
2017-Oct-15 20:59N 35°22' E 139°40'0 0.0
2017-Oct-15 20:29N 35°22' E 139°40'0 0.0
2017-Oct-15 19:59N 35°22' E 139°40'0 0.0
2017-Oct-15 19:29N 35°22' E 139°40'0 0.0
2017-Oct-15 18:59N 35°22' E 139°40'3 7.2
2017-Oct-15 18:31N 35°20' E 139°43'611.4
2017-Oct-15 18:00N 35°15' E 139°47'611.3
2017-Oct-15 17:30N 35°09' E 139°45'611.6
2017-Oct-15 17:00N 35°04' E 139°42'612.3
2017-Oct-15 16:30N 35°00' E 139°36'712.8
2017-Oct-15 15:59N 34°57' E 139°29'  
2017-Oct-12 07:35N 34°08' E 134°53'1 8.9
2017-Oct-12 07:30N 34°08' E 134°54'5 9.3
2017-Oct-12 07:00N 34°09' E 134°60'4 8.6
2017-Oct-12 06:30N 34°09' E 135°05'4 8.8
2017-Oct-12 06:00N 34°09' E 135°10'2 3.3
2017-Oct-12 05:30N 34°09' E 135°12'0 0.0
2017-Oct-12 05:00N 34°09' E 135°12'0 0.0
2017-Oct-12 04:30N 34°09' E 135°12'0 0.0
2017-Oct-12 04:00N 34°09' E 135°12'0 0.0
2017-Oct-12 03:20N 34°09' E 135°12'1 2.0
2017-Oct-12 03:00N 34°09' E 135°11'1 2.4
2017-Oct-12 02:31N 34°09' E 135°10'0 0.1
2017-Oct-12 02:01N 34°09' E 135°10'0 0.1
2017-Oct-12 01:31N 34°09' E 135°10'0 0.1
2017-Oct-12 01:01N 34°09' E 135°10'0 0.1
2017-Oct-12 00:24N 34°09' E 135°10'0 0.0
2017-Oct-12 00:00N 34°09' E 135°10'0 0.0
2017-Oct-11 23:30N 34°09' E 135°10'4 7.1
2017-Oct-11 23:00N 34°12' E 135°07'2 3.1
2017-Oct-11 22:30N 34°13' E 135°09'0 0.0
2017-Oct-11 22:00N 34°13' E 135°09'0 0.0
2017-Oct-11 21:30N 34°13' E 135°09'0 0.0
2017-Oct-11 21:00N 34°13' E 135°09'0 0.0
2017-Oct-11 20:30N 34°13' E 135°09'0 0.0
2017-Oct-11 20:00N 34°13' E 135°09'0 0.0
2017-Oct-11 19:30N 34°13' E 135°09'0 0.0
2017-Oct-11 19:00N 34°13' E 135°09'0 0.0
2017-Oct-11 18:30N 34°13' E 135°09'0 0.0
2017-Oct-11 18:01N 34°13' E 135°09'0 0.0
2017-Oct-11 17:30N 34°13' E 135°09'0 0.0
2017-Oct-11 17:00N 34°13' E 135°09'0 0.0
2017-Oct-11 00:00N 34°13' E 135°09'0 0.0
2017-Oct-10 23:30N 34°13' E 135°09'0 0.0
2017-Oct-10 23:00N 34°13' E 135°09'1 2.2
2017-Oct-10 22:30N 34°12' E 135°07'0 0.3
2017-Oct-10 21:59N 34°12' E 135°07'0 0.0
2017-Oct-10 21:29N 34°12' E 135°07'0 0.0
2017-Oct-10 20:59N 34°12' E 135°07'0 0.1
2017-Oct-10 20:29N 34°12' E 135°07'0 0.0
2017-Oct-10 19:59N 34°12' E 135°07'0 0.1
2017-Oct-10 19:26N 34°12' E 135°07'0 0.1
2017-Oct-10 18:59N 34°12' E 135°07'0 0.0
2017-Oct-10 18:29N 34°12' E 135°07'0 0.1
2017-Oct-10 17:56N 34°12' E 135°07'0 0.0
2017-Oct-10 17:29N 34°12' E 135°07'0 0.1
2017-Oct-10 16:59N 34°12' E 135°07'0 0.1
2017-Oct-10 16:29N 34°12' E 135°07'0 0.1
2017-Oct-10 15:59N 34°12' E 135°07'0 0.1
2017-Oct-10 15:29N 34°12' E 135°07'0 0.0
2017-Oct-10 14:59N 34°12' E 135°07'0 0.0
2017-Oct-10 13:59N 34°12' E 135°07'0 0.0
2017-Oct-10 13:29N 34°12' E 135°07'0 0.0
2017-Oct-10 12:59N 34°12' E 135°07'1 2.3
2017-Oct-10 12:30N 34°12' E 135°06'612.8
2017-Oct-10 12:00N 34°11' E 134°58'  

Dump ship's entire track history